To NAV CANADA Home Page Login to a new session Search on AWWS site Feedback and Comments Disclaimer Vers la page française équivalente Tips FAQ What's new on the site To the Forecasts and Observations / NOTAM section To "File a Flight Plan" website Publications and other links Update of the User's profile FIC Telephone Numbers My Weather Data Folder Route Weather Data Regional Weather Data Local Weather Data To the Forecasts and Observations / NOTAM section
Request Generated 04/30/2017 at 20:32:32 UTC . Weather information available at that time is displayed.

METAR/TAF

TORONTO/BUTTONVILLE MUNICIPAL/ON    

METAR CYKZ 302000Z 11016KT 070V140 15SM FEW020 OVC028 08/02 A3003 RMK
CF1SC8 CF TR SLP175=
METAR CYKZ 301900Z 08010G20KT 15SM FEW020 OVC029 07/02 A3006 RMK
CF1SC8 CF TR SLP184=
METAR CYKZ 301800Z 08014KT 15SM OVC033 07/01 A3009 RMK SC8 SLP198=

TAF CYKZ 301742Z 3018/0106 09015G25KT P6SM OVC030 TEMPO 3018/3021
OVC015
FM302100 09015G25KT 5SM -SHRA BR OVC012 TEMPO 3021/0101 P6SM NSW
OVC025 PROB30 3021/3024 2SM TSRA BR BKN008 OVC030CB
FM010100 09012G22KT 3SM -SHRA BR OVC006 TEMPO 0101/0105 P6SM NSW
OVC010 PROB30 0102/0105 2SM TSRA BR BKN005 OVC015CB
FM010500 09008KT 1SM -SHRA BR OVC002
RMK NXT FCST BY 010000Z=
Your time UTC time
Weather data provided by Environment Canada and NAV CANADA